createdAt,value
2017-01-06T00:04:36.356Z,-4.73
2017-01-06T00:09:32.599Z,-4.66
2017-01-06T00:14:29.938Z,-4.75
2017-01-06T00:19:25.918Z,-4.79
2017-01-06T00:24:21.957Z,-4.70
2017-01-06T00:29:18.158Z,-4.81
2017-01-06T00:34:15.296Z,-5.02
2017-01-06T00:39:11.442Z,-5.03
2017-01-06T00:44:07.784Z,-4.87
2017-01-06T00:49:04.013Z,-5.02
2017-01-06T00:54:00.232Z,-5.10
2017-01-06T00:58:56.723Z,-5.22
2017-01-06T01:03:52.911Z,-5.10
2017-01-06T01:08:49.191Z,-5.09
2017-01-06T01:13:45.092Z,-5.13
2017-01-06T01:18:41.223Z,-5.19
2017-01-06T01:23:37.428Z,-5.35
2017-01-06T01:28:33.699Z,-5.45
2017-01-06T01:33:29.901Z,-5.46
2017-01-06T01:38:25.826Z,-5.43
2017-01-06T01:43:22.305Z,-5.36
2017-01-06T01:48:18.405Z,-5.24
2017-01-06T01:53:15.798Z,-5.36
2017-01-06T01:58:11.662Z,-5.36
2017-01-06T02:03:08.420Z,-5.40
2017-01-06T02:08:05.461Z,-5.40
2017-01-06T02:13:02.201Z,-5.38
2017-01-06T02:17:58.409Z,-5.47
2017-01-06T02:22:55.218Z,-5.71
2017-01-06T02:27:51.452Z,-5.49
2017-01-06T02:32:47.732Z,-5.64
2017-01-06T02:37:44.659Z,-5.66
2017-01-06T02:42:40.835Z,-5.68
2017-01-06T02:47:37.011Z,-5.68
2017-01-06T02:52:33.051Z,-5.75
2017-01-06T02:57:29.309Z,-5.67
2017-01-06T03:02:25.543Z,-5.85
2017-01-06T03:07:21.683Z,-5.76
2017-01-06T03:12:17.889Z,-5.85
2017-01-06T03:17:13.901Z,-5.74
2017-01-06T03:22:09.910Z,-5.79
2017-01-06T03:27:06.929Z,-5.86
2017-01-06T03:32:03.145Z,-5.90
2017-01-06T03:37:00.016Z,-5.92
2017-01-06T03:41:56.224Z,-5.95
2017-01-06T03:46:52.589Z,-5.96
2017-01-06T03:51:48.714Z,-6.02
2017-01-06T03:56:44.936Z,-5.96
2017-01-06T04:01:41.156Z,-6.02
2017-01-06T04:06:37.419Z,-6.08
2017-01-06T04:11:33.557Z,-6.21
2017-01-06T04:16:29.686Z,-6.28
2017-01-06T04:21:26.655Z,-6.34
2017-01-06T04:26:22.691Z,-6.44
2017-01-06T04:31:18.702Z,-6.42
2017-01-06T04:36:14.833Z,-6.29
2017-01-06T04:41:11.225Z,-6.29
2017-01-06T04:46:08.156Z,-6.32
2017-01-06T04:51:04.321Z,-6.28
2017-01-06T04:56:00.628Z,-6.32
2017-01-06T05:00:56.964Z,-6.18
2017-01-06T05:05:53.142Z,-6.17
2017-01-06T05:10:49.214Z,-6.36
2017-01-06T05:15:45.634Z,-6.31
2017-01-06T05:20:41.827Z,-6.28
2017-01-06T05:25:39.208Z,-6.15
2017-01-06T05:30:35.861Z,-6.32
2017-01-06T05:35:31.955Z,-6.39
2017-01-06T05:40:28.069Z,-6.34
2017-01-06T05:45:24.326Z,-6.41
2017-01-06T05:50:20.586Z,-6.46
2017-01-06T05:55:16.740Z,-6.44
2017-01-06T06:00:13.706Z,-6.44
2017-01-06T06:05:09.900Z,-6.36
2017-01-06T06:10:05.994Z,-6.46
2017-01-06T06:15:02.185Z,-6.61
2017-01-06T06:19:58.248Z,-6.58
2017-01-06T06:24:54.259Z,-6.50
2017-01-06T06:29:50.344Z,-6.56
2017-01-06T06:34:46.459Z,-6.63
2017-01-06T06:39:42.626Z,-6.75
2017-01-06T06:44:38.760Z,-6.69
2017-01-06T06:49:34.812Z,-6.72
2017-01-06T06:54:31.167Z,-6.78
2017-01-06T06:59:27.062Z,-6.79
2017-01-06T07:04:23.071Z,-6.75
2017-01-06T07:09:19.156Z,-6.75
2017-01-06T07:14:15.362Z,-6.72
2017-01-06T07:19:11.404Z,-6.74
2017-01-06T07:24:07.493Z,-6.81
2017-01-06T07:29:04.630Z,-6.78
2017-01-06T07:34:01.119Z,-6.74
2017-01-06T07:38:57.246Z,-6.74
2017-01-06T07:43:53.372Z,-6.76
2017-01-06T07:48:49.464Z,-6.84
2017-01-06T07:53:45.569Z,-6.65
2017-01-06T07:58:41.844Z,-6.58
2017-01-06T08:03:37.950Z,-6.60
2017-01-06T08:08:35.006Z,-6.53
2017-01-06T08:13:31.171Z,-6.60
2017-01-06T08:18:27.518Z,-6.38
2017-01-06T08:23:24.347Z,-6.18
2017-01-06T08:28:20.619Z,-6.13
2017-01-06T08:33:16.967Z,-6.14
2017-01-06T08:38:14.287Z,-6.07
2017-01-06T08:43:10.380Z,-5.85
2017-01-06T08:48:06.569Z,-5.85
2017-01-06T08:53:02.679Z,-5.90
2017-01-06T08:57:58.822Z,-5.86
2017-01-06T09:02:55.200Z,-5.84
2017-01-06T09:07:51.688Z,-5.68
2017-01-06T09:12:47.927Z,-5.58
2017-01-06T09:17:44.366Z,-5.43
2017-01-06T09:22:40.181Z,-5.54
2017-01-06T09:27:37.249Z,-5.27
2017-01-06T09:32:33.603Z,-5.33
2017-01-06T09:37:30.736Z,-5.28
2017-01-06T09:42:28.067Z,-5.25
2017-01-06T09:47:24.375Z,-5.17
2017-01-06T09:52:20.887Z,-4.92
2017-01-06T09:57:17.280Z,-4.50
2017-01-06T10:02:13.498Z,-4.61
2017-01-06T10:07:12.251Z,-4.46
2017-01-06T10:12:08.912Z,-4.22
2017-01-06T10:17:05.026Z,-4.17
2017-01-06T10:22:02.253Z,-3.80
2017-01-06T10:26:58.676Z,-3.23
2017-01-06T10:31:55.801Z,-2.81
2017-01-06T10:36:52.167Z,-2.32
2017-01-06T10:41:48.875Z,-2.21
2017-01-06T10:46:46.003Z,-2.22
2017-01-06T10:51:42.121Z,-2.13
2017-01-06T10:56:38.266Z,-1.98
2017-01-06T11:01:35.448Z,-1.92
2017-01-06T11:06:31.739Z,-1.72
2017-01-06T11:11:28.121Z,-1.48
2017-01-06T11:16:24.559Z,-1.38
2017-01-06T11:21:20.940Z,-0.71
2017-01-06T11:26:17.327Z,-0.64
2017-01-06T11:31:13.797Z,-0.64
2017-01-06T11:36:10.186Z,-0.94
2017-01-06T11:41:07.329Z,-1.25
2017-01-06T11:46:03.751Z,-0.32
2017-01-06T11:51:00.526Z,0.04
2017-01-06T11:55:56.862Z,0.12
2017-01-06T12:00:53.347Z,-0.35
2017-01-06T12:05:49.665Z,-1.22
2017-01-06T12:10:46.320Z,-1.47
2017-01-06T12:15:42.358Z,-1.76
2017-01-06T12:20:39.079Z,-2.04
2017-01-06T12:25:35.798Z,-2.21
2017-01-06T12:30:31.369Z,-2.32
2017-01-06T12:35:27.433Z,-2.21
2017-01-06T12:40:23.646Z,-2.35
2017-01-06T12:45:19.838Z,-2.25
2017-01-06T12:50:16.078Z,-2.37
2017-01-06T12:55:13.110Z,-2.30
2017-01-06T13:00:10.113Z,-2.42
2017-01-06T13:05:07.048Z,-2.40
2017-01-06T13:10:03.305Z,-2.41
2017-01-06T13:14:59.538Z,-2.34
2017-01-06T13:19:55.821Z,-2.37
2017-01-06T13:24:52.188Z,-2.28
2017-01-06T13:29:48.625Z,-2.28
2017-01-06T13:34:44.959Z,-2.35
2017-01-06T13:39:41.439Z,-2.26
2017-01-06T13:44:37.561Z,-2.22
2017-01-06T13:49:34.071Z,-2.34
2017-01-06T13:54:30.187Z,-2.25
2017-01-06T13:59:26.408Z,-2.30
2017-01-06T14:04:22.091Z,-2.30
2017-01-06T14:09:18.795Z,-2.28
2017-01-06T14:14:15.143Z,-2.38
2017-01-06T14:19:11.460Z,-2.35
2017-01-06T14:24:07.806Z,-2.41
2017-01-06T14:29:03.992Z,-2.35
2017-01-06T14:33:59.918Z,-2.48
2017-01-06T14:38:56.229Z,-2.44
2017-01-06T14:43:53.184Z,-2.50
2017-01-06T14:48:49.418Z,-2.62
2017-01-06T14:53:45.761Z,-2.74
2017-01-06T14:58:42.672Z,-2.74
2017-01-06T15:03:38.764Z,-2.65
2017-01-06T15:08:35.287Z,-2.70
2017-01-06T15:13:32.343Z,-2.83
2017-01-06T15:18:28.494Z,-2.73
2017-01-06T15:23:24.670Z,-2.89
2017-01-06T15:28:20.886Z,-2.94
2017-01-06T15:33:17.034Z,-2.97
2017-01-06T15:38:14.021Z,-3.12
2017-01-06T15:43:09.907Z,-3.23
2017-01-06T15:48:06.276Z,-3.19
2017-01-06T15:53:02.829Z,-3.40
2017-01-06T15:57:59.216Z,-3.19
2017-01-06T16:02:55.838Z,-3.19
2017-01-06T16:07:52.287Z,-3.19
2017-01-06T16:12:48.533Z,-3.17
2017-01-06T16:17:45.509Z,-3.35
2017-01-06T16:22:41.878Z,-3.22
2017-01-06T16:27:38.860Z,-3.28
2017-01-06T16:32:34.723Z,-3.40
2017-01-06T16:37:31.780Z,-3.55
2017-01-06T16:42:28.635Z,-3.70
2017-01-06T16:47:25.068Z,-3.75
2017-01-06T16:52:21.255Z,-3.69
2017-01-06T16:57:17.554Z,-3.58
2017-01-06T17:02:13.802Z,-3.56
2017-01-06T17:07:11.014Z,-3.55
2017-01-06T17:12:07.258Z,-3.66
2017-01-06T17:17:03.429Z,-3.78
2017-01-06T17:21:59.644Z,-3.92
2017-01-06T17:26:55.767Z,-3.95
2017-01-06T17:31:51.983Z,-3.83
2017-01-06T17:36:48.396Z,-3.86
2017-01-06T17:41:44.771Z,-3.96
2017-01-06T17:46:41.023Z,-3.92
2017-01-06T17:51:37.216Z,-3.99
2017-01-06T17:56:33.110Z,-3.92
2017-01-06T18:01:29.334Z,-3.95
2017-01-06T18:06:25.471Z,-3.70
2017-01-06T18:11:21.699Z,-3.69
2017-01-06T18:16:17.582Z,-3.56
2017-01-06T18:21:13.826Z,-3.48
2017-01-06T18:26:10.170Z,-3.51
2017-01-06T18:31:06.387Z,-3.51
2017-01-06T18:36:02.512Z,-3.51
2017-01-06T18:40:58.731Z,-3.31
2017-01-06T18:45:55.869Z,-3.31
2017-01-06T18:50:53.027Z,-3.35
2017-01-06T18:55:50.114Z,-3.33
2017-01-06T19:00:47.373Z,-3.15
2017-01-06T19:05:43.231Z,-3.19
2017-01-06T19:10:40.133Z,-3.15
2017-01-06T19:15:37.117Z,-3.15
2017-01-06T19:20:33.299Z,-3.23
2017-01-06T19:25:29.378Z,-3.31
2017-01-06T19:30:25.418Z,-3.28
2017-01-06T19:35:21.542Z,-3.38
2017-01-06T19:40:17.800Z,-3.46
2017-01-06T19:45:13.996Z,-3.48
2017-01-06T19:50:10.137Z,-3.69
2017-01-06T19:55:06.315Z,-3.67
2017-01-06T20:00:02.586Z,-3.67
2017-01-06T20:04:58.758Z,-3.70
2017-01-06T20:09:54.900Z,-3.77
2017-01-06T20:14:51.178Z,-3.69
2017-01-06T20:19:47.486Z,-3.67
2017-01-06T20:24:43.837Z,-3.55
2017-01-06T20:29:39.974Z,-3.51
2017-01-06T20:34:36.301Z,-3.52
2017-01-06T20:39:32.607Z,-3.37
2017-01-06T20:44:29.948Z,-3.34
2017-01-06T20:49:26.289Z,-3.30
2017-01-06T20:54:22.788Z,-3.44
2017-01-06T20:59:19.266Z,-3.66
2017-01-06T21:04:15.341Z,-3.78
2017-01-06T21:09:11.656Z,-3.83
2017-01-06T21:14:07.988Z,-3.89
2017-01-06T21:19:04.499Z,-3.93
2017-01-06T21:24:00.694Z,-3.88
2017-01-06T21:28:57.784Z,-3.91
2017-01-06T21:33:53.796Z,-3.98
2017-01-06T21:38:51.059Z,-3.91
2017-01-06T21:43:47.048Z,-3.95
2017-01-06T21:48:43.298Z,-3.93
2017-01-06T21:53:40.194Z,-4.07
2017-01-06T21:58:36.625Z,-4.03
2017-01-06T22:03:32.998Z,-4.04
2017-01-06T22:08:29.123Z,-4.07
2017-01-06T22:13:25.330Z,-4.10
2017-01-06T22:18:21.426Z,-3.96
2017-01-06T22:23:19.078Z,-3.91
2017-01-06T22:28:15.846Z,-3.98
2017-01-06T22:33:12.960Z,-3.96
2017-01-06T22:38:10.058Z,-3.86
2017-01-06T22:43:06.480Z,-3.85
2017-01-06T22:48:02.877Z,-3.82
2017-01-06T22:52:59.180Z,-3.80
2017-01-06T22:57:55.798Z,-3.66
2017-01-06T23:02:51.717Z,-3.52
2017-01-06T23:07:48.053Z,-3.38
2017-01-06T23:12:44.428Z,-3.37
2017-01-06T23:17:41.304Z,-3.51
2017-01-06T23:22:38.269Z,-3.40
2017-01-06T23:27:34.522Z,-3.33
2017-01-06T23:32:30.803Z,-3.27
2017-01-06T23:37:27.010Z,-3.15
2017-01-06T23:42:23.240Z,-3.28
2017-01-06T23:47:19.610Z,-3.33
2017-01-06T23:52:15.714Z,-3.51
2017-01-06T23:57:11.800Z,-3.49
